sensor_id;sensor_type;location;lat;lon;timestamp;P1;durP1;ratioP1;P2;durP2;ratioP2
48651;SDS011;34442;52.362;-1.302;2023-05-10T00:01:02;3.38;;;1.70;;
48651;SDS011;34442;52.362;-1.302;2023-05-10T00:03:27;2.80;;;1.25;;
48651;SDS011;34442;52.362;-1.302;2023-05-10T00:05:53;2.60;;;1.30;;
48651;SDS011;34442;52.362;-1.302;2023-05-10T00:08:18;2.28;;;1.40;;
48651;SDS011;34442;52.362;-1.302;2023-05-10T00:10:43;2.38;;;1.27;;
48651;SDS011;34442;52.362;-1.302;2023-05-10T00:13:09;3.63;;;1.33;;
48651;SDS011;34442;52.362;-1.302;2023-05-10T00:15:34;2.78;;;1.13;;
48651;SDS011;34442;52.362;-1.302;2023-05-10T00:18:00;2.38;;;1.30;;
48651;SDS011;34442;52.362;-1.302;2023-05-10T00:20:25;2.97;;;1.50;;
48651;SDS011;34442;52.362;-1.302;2023-05-10T00:22:51;3.28;;;1.50;;
48651;SDS011;34442;52.362;-1.302;2023-05-10T00:25:16;3.33;;;1.67;;
48651;SDS011;34442;52.362;-1.302;2023-05-10T00:27:41;3.63;;;1.80;;
48651;SDS011;34442;52.362;-1.302;2023-05-10T00:30:07;3.08;;;1.60;;
48651;SDS011;34442;52.362;-1.302;2023-05-10T00:32:33;2.97;;;1.50;;
48651;SDS011;34442;52.362;-1.302;2023-05-10T00:34:58;4.25;;;2.20;;
48651;SDS011;34442;52.362;-1.302;2023-05-10T00:37:24;4.43;;;2.10;;
48651;SDS011;34442;52.362;-1.302;2023-05-10T00:39:49;3.80;;;1.98;;
48651;SDS011;34442;52.362;-1.302;2023-05-10T00:42:15;2.92;;;1.50;;
48651;SDS011;34442;52.362;-1.302;2023-05-10T00:44:40;3.22;;;1.60;;
48651;SDS011;34442;52.362;-1.302;2023-05-10T00:47:05;3.90;;;1.85;;
48651;SDS011;34442;52.362;-1.302;2023-05-10T00:49:31;4.22;;;1.80;;
48651;SDS011;34442;52.362;-1.302;2023-05-10T00:51:57;3.03;;;1.60;;
48651;SDS011;34442;52.362;-1.302;2023-05-10T00:54:23;3.10;;;1.45;;
48651;SDS011;34442;52.362;-1.302;2023-05-10T00:56:48;4.35;;;1.80;;
48651;SDS011;34442;52.362;-1.302;2023-05-10T00:59:15;3.67;;;1.70;;
48651;SDS011;34442;52.362;-1.302;2023-05-10T01:01:42;3.67;;;1.50;;
48651;SDS011;34442;52.362;-1.302;2023-05-10T01:04:08;2.40;;;1.33;;
48651;SDS011;34442;52.362;-1.302;2023-05-10T01:06:36;2.65;;;1.40;;
48651;SDS011;34442;52.362;-1.302;2023-05-10T01:09:01;1.98;;;1.15;;
48651;SDS011;34442;52.362;-1.302;2023-05-10T01:11:27;4.85;;;1.58;;
48651;SDS011;34442;52.362;-1.302;2023-05-10T01:13:54;2.25;;;1.20;;
48651;SDS011;34442;52.362;-1.302;2023-05-10T01:16:21;3.10;;;1.42;;
48651;SDS011;34442;52.362;-1.302;2023-05-10T01:18:48;2.58;;;1.27;;
48651;SDS011;34442;52.362;-1.302;2023-05-10T01:21:58;2.10;;;1.10;;
48651;SDS011;34442;52.362;-1.302;2023-05-10T01:40:40;1.63;;;0.90;;
48651;SDS011;34442;52.362;-1.302;2023-05-10T01:43:17;1.52;;;0.82;;
48651;SDS011;34442;52.362;-1.302;2023-05-10T01:45:50;1.73;;;1.10;;
48651;SDS011;34442;52.362;-1.302;2023-05-10T01:48:29;1.23;;;0.90;;
48651;SDS011;34442;52.362;-1.302;2023-05-10T01:50:56;2.60;;;1.13;;
48651;SDS011;34442;52.362;-1.302;2023-05-10T01:53:23;1.63;;;0.90;;
48651;SDS011;34442;52.362;-1.302;2023-05-10T01:55:52;2.17;;;1.02;;
48651;SDS011;34442;52.362;-1.302;2023-05-10T01:58:21;2.47;;;1.20;;
48651;SDS011;34442;52.362;-1.302;2023-05-10T02:00:50;1.95;;;1.00;;
48651;SDS011;34442;52.362;-1.302;2023-05-10T02:03:18;1.42;;;0.90;;
48651;SDS011;34442;52.362;-1.302;2023-05-10T02:05:48;1.77;;;1.30;;
48651;SDS011;34442;52.362;-1.302;2023-05-10T02:08:15;1.70;;;1.00;;
48651;SDS011;34442;52.362;-1.302;2023-05-10T02:10:43;1.38;;;0.77;;
48651;SDS011;34442;52.362;-1.302;2023-05-10T02:13:10;2.22;;;1.00;;
48651;SDS011;34442;52.362;-1.302;2023-05-10T02:15:37;0.98;;;0.82;;
48651;SDS011;34442;52.362;-1.302;2023-05-10T02:18:05;1.75;;;1.00;;
48651;SDS011;34442;52.362;-1.302;2023-05-10T02:20:31;2.20;;;1.00;;
48651;SDS011;34442;52.362;-1.302;2023-05-10T02:22:58;2.38;;;1.15;;
48651;SDS011;34442;52.362;-1.302;2023-05-10T02:25:25;2.40;;;1.00;;
48651;SDS011;34442;52.362;-1.302;2023-05-10T02:27:53;1.10;;;0.90;;
48651;SDS011;34442;52.362;-1.302;2023-05-10T02:30:22;1.95;;;1.10;;
48651;SDS011;34442;52.362;-1.302;2023-05-10T02:32:49;1.85;;;1.05;;
48651;SDS011;34442;52.362;-1.302;2023-05-10T02:35:15;2.38;;;1.23;;
48651;SDS011;34442;52.362;-1.302;2023-05-10T02:37:41;2.75;;;1.00;;
48651;SDS011;34442;52.362;-1.302;2023-05-10T02:40:10;2.28;;;1.10;;
48651;SDS011;34442;52.362;-1.302;2023-05-10T02:42:37;3.08;;;1.10;;
48651;SDS011;34442;52.362;-1.302;2023-05-10T02:45:07;2.03;;;1.15;;
48651;SDS011;34442;52.362;-1.302;2023-05-10T02:47:36;2.63;;;1.05;;
48651;SDS011;34442;52.362;-1.302;2023-05-10T02:50:02;2.50;;;1.27;;
48651;SDS011;34442;52.362;-1.302;2023-05-10T02:52:29;1.75;;;1.10;;
48651;SDS011;34442;52.362;-1.302;2023-05-10T02:55:02;1.75;;;1.05;;
48651;SDS011;34442;52.362;-1.302;2023-05-10T02:57:32;1.80;;;1.13;;
48651;SDS011;34442;52.362;-1.302;2023-05-10T02:59:59;2.03;;;1.02;;
48651;SDS011;34442;52.362;-1.302;2023-05-10T03:02:26;1.92;;;1.20;;
48651;SDS011;34442;52.362;-1.302;2023-05-10T03:04:51;2.25;;;1.15;;
48651;SDS011;34442;52.362;-1.302;2023-05-10T03:07:17;2.42;;;1.20;;
48651;SDS011;34442;52.362;-1.302;2023-05-10T03:09:46;2.78;;;1.52;;
48651;SDS011;34442;52.362;-1.302;2023-05-10T03:15:13;2.88;;;1.40;;
48651;SDS011;34442;52.362;-1.302;2023-05-10T03:20:49;2.22;;;1.30;;
48651;SDS011;34442;52.362;-1.302;2023-05-10T03:25:48;2.25;;;1.20;;
48651;SDS011;34442;52.362;-1.302;2023-05-10T03:28:15;2.30;;;1.38;;
48651;SDS011;34442;52.362;-1.302;2023-05-10T03:30:43;1.75;;;1.10;;
48651;SDS011;34442;52.362;-1.302;2023-05-10T03:33:09;2.28;;;1.20;;
48651;SDS011;34442;52.362;-1.302;2023-05-10T03:35:35;1.83;;;1.00;;
48651;SDS011;34442;52.362;-1.302;2023-05-10T03:38:01;1.38;;;1.10;;
48651;SDS011;34442;52.362;-1.302;2023-05-10T03:40:26;2.15;;;1.15;;
48651;SDS011;34442;52.362;-1.302;2023-05-10T03:42:54;1.80;;;1.10;;
48651;SDS011;34442;52.362;-1.302;2023-05-10T03:45:20;2.05;;;1.20;;
48651;SDS011;34442;52.362;-1.302;2023-05-10T03:47:45;1.90;;;1.25;;
48651;SDS011;34442;52.362;-1.302;2023-05-10T03:50:10;1.50;;;0.90;;
48651;SDS011;34442;52.362;-1.302;2023-05-10T03:52:36;2.13;;;1.00;;
48651;SDS011;34442;52.362;-1.302;2023-05-10T03:55:04;1.48;;;1.10;;
48651;SDS011;34442;52.362;-1.302;2023-05-10T03:57:30;1.77;;;1.10;;
48651;SDS011;34442;52.362;-1.302;2023-05-10T03:59:55;1.83;;;1.08;;
48651;SDS011;34442;52.362;-1.302;2023-05-10T04:02:22;1.92;;;1.00;;
48651;SDS011;34442;52.362;-1.302;2023-05-10T04:04:47;2.58;;;1.15;;
48651;SDS011;34442;52.362;-1.302;2023-05-10T04:07:13;1.15;;;1.00;;
48651;SDS011;34442;52.362;-1.302;2023-05-10T04:09:39;1.65;;;1.05;;
48651;SDS011;34442;52.362;-1.302;2023-05-10T04:12:04;2.35;;;1.20;;
48651;SDS011;34442;52.362;-1.302;2023-05-10T04:14:30;1.35;;;0.80;;
48651;SDS011;34442;52.362;-1.302;2023-05-10T04:16:56;1.40;;;0.93;;
48651;SDS011;34442;52.362;-1.302;2023-05-10T04:19:21;1.10;;;0.80;;
48651;SDS011;34442;52.362;-1.302;2023-05-10T04:21:46;2.88;;;1.30;;
48651;SDS011;34442;52.362;-1.302;2023-05-10T04:24:12;1.60;;;1.10;;
48651;SDS011;34442;52.362;-1.302;2023-05-10T04:26:37;1.17;;;0.93;;
48651;SDS011;34442;52.362;-1.302;2023-05-10T04:29:02;2.13;;;1.20;;
48651;SDS011;34442;52.362;-1.302;2023-05-10T04:31:28;1.90;;;1.15;;
48651;SDS011;34442;52.362;-1.302;2023-05-10T04:33:53;1.95;;;1.08;;
48651;SDS011;34442;52.362;-1.302;2023-05-10T04:36:18;2.13;;;1.10;;
48651;SDS011;34442;52.362;-1.302;2023-05-10T04:38:44;1.55;;;0.90;;
48651;SDS011;34442;52.362;-1.302;2023-05-10T04:41:09;2.33;;;1.20;;
48651;SDS011;34442;52.362;-1.302;2023-05-10T04:43:35;1.45;;;0.90;;
48651;SDS011;34442;52.362;-1.302;2023-05-10T04:46:02;1.85;;;1.00;;
48651;SDS011;34442;52.362;-1.302;2023-05-10T04:48:27;2.00;;;1.20;;
48651;SDS011;34442;52.362;-1.302;2023-05-10T04:50:53;2.03;;;1.20;;
48651;SDS011;34442;52.362;-1.302;2023-05-10T04:53:19;2.25;;;1.15;;
48651;SDS011;34442;52.362;-1.302;2023-05-10T04:55:44;2.97;;;1.58;;
48651;SDS011;34442;52.362;-1.302;2023-05-10T04:58:13;1.33;;;1.00;;
48651;SDS011;34442;52.362;-1.302;2023-05-10T05:00:38;2.65;;;1.00;;
48651;SDS011;34442;52.362;-1.302;2023-05-10T05:03:04;1.35;;;0.90;;
48651;SDS011;34442;52.362;-1.302;2023-05-10T05:05:30;1.60;;;1.10;;
48651;SDS011;34442;52.362;-1.302;2023-05-10T05:07:55;1.42;;;1.00;;
48651;SDS011;34442;52.362;-1.302;2023-05-10T05:10:21;2.13;;;1.10;;
48651;SDS011;34442;52.362;-1.302;2023-05-10T05:12:46;1.63;;;0.98;;
48651;SDS011;34442;52.362;-1.302;2023-05-10T05:15:12;1.42;;;1.00;;
48651;SDS011;34442;52.362;-1.302;2023-05-10T05:17:37;1.30;;;0.90;;
48651;SDS011;34442;52.362;-1.302;2023-05-10T05:20:03;1.80;;;0.98;;
48651;SDS011;34442;52.362;-1.302;2023-05-10T05:22:28;2.15;;;1.02;;
48651;SDS011;34442;52.362;-1.302;2023-05-10T05:24:54;1.50;;;0.93;;
48651;SDS011;34442;52.362;-1.302;2023-05-10T05:27:20;1.10;;;0.85;;
48651;SDS011;34442;52.362;-1.302;2023-05-10T05:29:49;2.38;;;1.00;;
48651;SDS011;34442;52.362;-1.302;2023-05-10T05:32:15;1.67;;;1.10;;
48651;SDS011;34442;52.362;-1.302;2023-05-10T05:34:41;1.85;;;0.80;;
48651;SDS011;34442;52.362;-1.302;2023-05-10T05:37:06;2.30;;;1.00;;
48651;SDS011;34442;52.362;-1.302;2023-05-10T05:39:31;1.58;;;0.80;;
48651;SDS011;34442;52.362;-1.302;2023-05-10T05:41:57;2.47;;;1.20;;
48651;SDS011;34442;52.362;-1.302;2023-05-10T05:44:23;1.05;;;0.80;;
48651;SDS011;34442;52.362;-1.302;2023-05-10T05:46:48;1.65;;;1.00;;
48651;SDS011;34442;52.362;-1.302;2023-05-10T05:49:14;2.33;;;1.15;;
48651;SDS011;34442;52.362;-1.302;2023-05-10T05:51:39;2.40;;;1.10;;
48651;SDS011;34442;52.362;-1.302;2023-05-10T05:54:08;1.70;;;0.95;;
48651;SDS011;34442;52.362;-1.302;2023-05-10T05:56:33;2.15;;;1.00;;
48651;SDS011;34442;52.362;-1.302;2023-05-10T05:58:58;3.05;;;1.10;;
48651;SDS011;34442;52.362;-1.302;2023-05-10T06:01:24;1.80;;;0.98;;
48651;SDS011;34442;52.362;-1.302;2023-05-10T06:03:49;2.45;;;1.10;;
48651;SDS011;34442;52.362;-1.302;2023-05-10T06:06:14;2.15;;;1.00;;
48651;SDS011;34442;52.362;-1.302;2023-05-10T06:08:40;1.92;;;0.90;;
48651;SDS011;34442;52.362;-1.302;2023-05-10T06:11:05;1.10;;;0.80;;
48651;SDS011;34442;52.362;-1.302;2023-05-10T06:13:31;1.30;;;0.85;;
48651;SDS011;34442;52.362;-1.302;2023-05-10T06:15:58;2.08;;;0.90;;
48651;SDS011;34442;52.362;-1.302;2023-05-10T06:18:24;2.20;;;1.00;;
48651;SDS011;34442;52.362;-1.302;2023-05-10T06:20:50;1.50;;;1.00;;
48651;SDS011;34442;52.362;-1.302;2023-05-10T06:23:16;1.30;;;0.77;;
48651;SDS011;34442;52.362;-1.302;2023-05-10T06:25:42;1.05;;;0.90;;
48651;SDS011;34442;52.362;-1.302;2023-05-10T06:28:07;1.75;;;1.00;;
48651;SDS011;34442;52.362;-1.302;2023-05-10T06:30:33;2.67;;;0.95;;
48651;SDS011;34442;52.362;-1.302;2023-05-10T06:32:58;1.58;;;1.00;;
48651;SDS011;34442;52.362;-1.302;2023-05-10T06:35:24;2.20;;;1.17;;
48651;SDS011;34442;52.362;-1.302;2023-05-10T06:37:50;1.77;;;1.15;;
48651;SDS011;34442;52.362;-1.302;2023-05-10T06:40:16;2.47;;;1.13;;
48651;SDS011;34442;52.362;-1.302;2023-05-10T06:42:42;2.97;;;1.20;;
48651;SDS011;34442;52.362;-1.302;2023-05-10T06:45:07;2.70;;;1.48;;
48651;SDS011;34442;52.362;-1.302;2023-05-10T06:47:34;1.52;;;0.93;;
48651;SDS011;34442;52.362;-1.302;2023-05-10T06:49:59;2.17;;;1.13;;
48651;SDS011;34442;52.362;-1.302;2023-05-10T06:52:24;2.63;;;1.20;;
48651;SDS011;34442;52.362;-1.302;2023-05-10T06:54:50;1.33;;;0.90;;
48651;SDS011;34442;52.362;-1.302;2023-05-10T06:57:15;2.78;;;1.00;;
48651;SDS011;34442;52.362;-1.302;2023-05-10T06:59:41;1.65;;;0.88;;
48651;SDS011;34442;52.362;-1.302;2023-05-10T07:02:06;2.13;;;0.82;;
48651;SDS011;34442;52.362;-1.302;2023-05-10T07:04:32;2.63;;;1.27;;
48651;SDS011;34442;52.362;-1.302;2023-05-10T07:06:58;2.50;;;1.10;;
48651;SDS011;34442;52.362;-1.302;2023-05-10T07:09:23;2.90;;;1.15;;
48651;SDS011;34442;52.362;-1.302;2023-05-10T07:11:49;2.00;;;1.10;;
48651;SDS011;34442;52.362;-1.302;2023-05-10T07:14:15;2.50;;;1.17;;
48651;SDS011;34442;52.362;-1.302;2023-05-10T07:16:40;1.77;;;1.20;;
48651;SDS011;34442;52.362;-1.302;2023-05-10T07:19:05;2.15;;;1.15;;
48651;SDS011;34442;52.362;-1.302;2023-05-10T07:21:31;1.65;;;1.00;;
48651;SDS011;34442;52.362;-1.302;2023-05-10T07:23:57;2.25;;;1.27;;
48651;SDS011;34442;52.362;-1.302;2023-05-10T07:26:22;2.45;;;0.93;;
48651;SDS011;34442;52.362;-1.302;2023-05-10T07:28:49;3.13;;;1.10;;
48651;SDS011;34442;52.362;-1.302;2023-05-10T07:31:14;1.48;;;0.90;;
48651;SDS011;34442;52.362;-1.302;2023-05-10T07:33:40;1.52;;;1.00;;
48651;SDS011;34442;52.362;-1.302;2023-05-10T07:36:05;2.10;;;1.25;;
48651;SDS011;34442;52.362;-1.302;2023-05-10T07:38:31;1.85;;;1.15;;
48651;SDS011;34442;52.362;-1.302;2023-05-10T07:40:56;2.35;;;1.13;;
48651;SDS011;34442;52.362;-1.302;2023-05-10T07:43:22;3.45;;;1.50;;
48651;SDS011;34442;52.362;-1.302;2023-05-10T07:45:47;3.03;;;1.40;;
48651;SDS011;34442;52.362;-1.302;2023-05-10T07:48:13;3.45;;;1.50;;
48651;SDS011;34442;52.362;-1.302;2023-05-10T07:50:38;2.70;;;1.17;;
48651;SDS011;34442;52.362;-1.302;2023-05-10T07:53:04;2.88;;;1.30;;
48651;SDS011;34442;52.362;-1.302;2023-05-10T07:55:29;3.10;;;1.27;;
48651;SDS011;34442;52.362;-1.302;2023-05-10T07:57:55;1.92;;;1.10;;
48651;SDS011;34442;52.362;-1.302;2023-05-10T08:00:20;1.33;;;0.80;;
48651;SDS011;34442;52.362;-1.302;2023-05-10T08:02:46;2.08;;;1.05;;
48651;SDS011;34442;52.362;-1.302;2023-05-10T08:05:12;1.73;;;1.00;;
48651;SDS011;34442;52.362;-1.302;2023-05-10T08:07:38;1.17;;;0.90;;
48651;SDS011;34442;52.362;-1.302;2023-05-10T08:10:04;1.63;;;1.00;;
48651;SDS011;34442;52.362;-1.302;2023-05-10T08:12:30;3.65;;;1.10;;
48651;SDS011;34442;52.362;-1.302;2023-05-10T08:14:55;2.17;;;0.98;;
48651;SDS011;34442;52.362;-1.302;2023-05-10T08:17:21;2.25;;;1.10;;
48651;SDS011;34442;52.362;-1.302;2023-05-10T08:19:46;2.65;;;1.10;;
48651;SDS011;34442;52.362;-1.302;2023-05-10T08:22:12;1.83;;;1.20;;
48651;SDS011;34442;52.362;-1.302;2023-05-10T08:24:37;1.63;;;0.90;;
48651;SDS011;34442;52.362;-1.302;2023-05-10T08:27:04;1.88;;;1.10;;
48651;SDS011;34442;52.362;-1.302;2023-05-10T08:29:30;1.73;;;0.90;;
48651;SDS011;34442;52.362;-1.302;2023-05-10T08:31:55;1.25;;;0.80;;
48651;SDS011;34442;52.362;-1.302;2023-05-10T08:34:21;1.77;;;1.10;;
48651;SDS011;34442;52.362;-1.302;2023-05-10T08:36:46;1.95;;;0.80;;
48651;SDS011;34442;52.362;-1.302;2023-05-10T08:39:11;1.77;;;0.98;;
48651;SDS011;34442;52.362;-1.302;2023-05-10T08:41:37;1.42;;;0.90;;
48651;SDS011;34442;52.362;-1.302;2023-05-10T08:44:04;2.20;;;1.05;;
48651;SDS011;34442;52.362;-1.302;2023-05-10T08:46:30;1.67;;;1.10;;
48651;SDS011;34442;52.362;-1.302;2023-05-10T08:48:58;2.38;;;1.15;;
48651;SDS011;34442;52.362;-1.302;2023-05-10T08:51:28;3.53;;;1.40;;
48651;SDS011;34442;52.362;-1.302;2023-05-10T08:54:00;3.42;;;1.33;;
48651;SDS011;34442;52.362;-1.302;2023-05-10T08:56:26;1.80;;;1.20;;
48651;SDS011;34442;52.362;-1.302;2023-05-10T08:58:52;1.95;;;1.10;;
48651;SDS011;34442;52.362;-1.302;2023-05-10T09:01:18;2.92;;;1.40;;
48651;SDS011;34442;52.362;-1.302;2023-05-10T09:03:45;1.77;;;1.10;;
48651;SDS011;34442;52.362;-1.302;2023-05-10T09:06:12;2.58;;;1.10;;
48651;SDS011;34442;52.362;-1.302;2023-05-10T09:08:38;2.25;;;1.10;;
48651;SDS011;34442;52.362;-1.302;2023-05-10T09:11:05;2.97;;;1.45;;
48651;SDS011;34442;52.362;-1.302;2023-05-10T09:13:30;2.83;;;1.05;;
48651;SDS011;34442;52.362;-1.302;2023-05-10T09:15:57;2.15;;;1.00;;
48651;SDS011;34442;52.362;-1.302;2023-05-10T09:18:23;1.45;;;1.00;;
48651;SDS011;34442;52.362;-1.302;2023-05-10T09:20:48;1.20;;;0.80;;
48651;SDS011;34442;52.362;-1.302;2023-05-10T09:23:14;1.58;;;0.80;;
48651;SDS011;34442;52.362;-1.302;2023-05-10T09:25:41;1.98;;;0.82;;
48651;SDS011;34442;52.362;-1.302;2023-05-10T09:28:07;3.60;;;1.20;;
48651;SDS011;34442;52.362;-1.302;2023-05-10T09:30:36;1.48;;;0.90;;
48651;SDS011;34442;52.362;-1.302;2023-05-10T09:33:01;1.63;;;1.15;;
48651;SDS011;34442;52.362;-1.302;2023-05-10T09:35:28;2.25;;;1.10;;
48651;SDS011;34442;52.362;-1.302;2023-05-10T09:37:55;1.50;;;1.00;;
48651;SDS011;34442;52.362;-1.302;2023-05-10T09:40:23;0.88;;;0.80;;
48651;SDS011;34442;52.362;-1.302;2023-05-10T09:43:00;2.22;;;1.00;;
48651;SDS011;34442;52.362;-1.302;2023-05-10T09:45:27;1.42;;;0.90;;
48651;SDS011;34442;52.362;-1.302;2023-05-10T09:47:54;3.67;;;1.50;;
48651;SDS011;34442;52.362;-1.302;2023-05-10T09:50:20;2.30;;;0.95;;
48651;SDS011;34442;52.362;-1.302;2023-05-10T09:52:48;2.03;;;1.00;;
48651;SDS011;34442;52.362;-1.302;2023-05-10T09:55:13;3.65;;;1.15;;
48651;SDS011;34442;52.362;-1.302;2023-05-10T09:57:39;3.35;;;1.13;;
48651;SDS011;34442;52.362;-1.302;2023-05-10T10:00:06;2.78;;;1.33;;
48651;SDS011;34442;52.362;-1.302;2023-05-10T10:02:32;2.90;;;1.33;;
48651;SDS011;34442;52.362;-1.302;2023-05-10T10:04:59;3.40;;;1.30;;
48651;SDS011;34442;52.362;-1.302;2023-05-10T10:07:26;3.08;;;1.30;;
48651;SDS011;34442;52.362;-1.302;2023-05-10T10:09:52;1.33;;;0.95;;
48651;SDS011;34442;52.362;-1.302;2023-05-10T10:12:18;1.60;;;1.00;;
48651;SDS011;34442;52.362;-1.302;2023-05-10T10:14:47;1.40;;;0.80;;
48651;SDS011;34442;52.362;-1.302;2023-05-10T10:17:18;1.35;;;1.00;;
48651;SDS011;34442;52.362;-1.302;2023-05-10T10:19:44;2.30;;;1.17;;
48651;SDS011;34442;52.362;-1.302;2023-05-10T10:22:10;1.17;;;0.77;;
48651;SDS011;34442;52.362;-1.302;2023-05-10T10:24:37;1.85;;;0.95;;
48651;SDS011;34442;52.362;-1.302;2023-05-10T10:27:15;1.13;;;0.80;;
48651;SDS011;34442;52.362;-1.302;2023-05-10T10:29:50;2.13;;;0.98;;
48651;SDS011;34442;52.362;-1.302;2023-05-10T10:32:21;2.22;;;1.05;;
48651;SDS011;34442;52.362;-1.302;2023-05-10T10:34:51;0.98;;;0.80;;
48651;SDS011;34442;52.362;-1.302;2023-05-10T10:37:17;1.10;;;0.80;;
48651;SDS011;34442;52.362;-1.302;2023-05-10T10:39:42;2.83;;;1.30;;
48651;SDS011;34442;52.362;-1.302;2023-05-10T10:42:08;2.13;;;1.10;;
48651;SDS011;34442;52.362;-1.302;2023-05-10T10:44:34;3.00;;;0.85;;
48651;SDS011;34442;52.362;-1.302;2023-05-10T10:50:22;2.83;;;0.80;;
48651;SDS011;34442;52.362;-1.302;2023-05-10T10:52:26;1.05;;;0.80;;
48651;SDS011;34442;52.362;-1.302;2023-05-10T10:57:26;1.90;;;0.80;;
48651;SDS011;34442;52.362;-1.302;2023-05-10T11:05:33;1.60;;;0.80;;
48651;SDS011;34442;52.362;-1.302;2023-05-10T11:13:31;1.38;;;0.73;;
48651;SDS011;34442;52.362;-1.302;2023-05-10T11:15:57;1.67;;;0.70;;
48651;SDS011;34442;52.362;-1.302;2023-05-10T11:18:27;0.82;;;0.65;;
48651;SDS011;34442;52.362;-1.302;2023-05-10T11:20:58;0.75;;;0.60;;
48651;SDS011;34442;52.362;-1.302;2023-05-10T11:23:29;0.80;;;0.70;;
48651;SDS011;34442;52.362;-1.302;2023-05-10T11:25:56;0.60;;;0.60;;
48651;SDS011;34442;52.362;-1.302;2023-05-10T11:28:21;1.83;;;1.00;;
48651;SDS011;34442;52.362;-1.302;2023-05-10T11:30:46;0.65;;;0.65;;
48651;SDS011;34442;52.362;-1.302;2023-05-10T11:33:18;1.75;;;1.10;;
48651;SDS011;34442;52.362;-1.302;2023-05-10T11:35:44;1.80;;;0.95;;
48651;SDS011;34442;52.362;-1.302;2023-05-10T11:38:11;1.73;;;0.82;;
48651;SDS011;34442;52.362;-1.302;2023-05-10T11:40:37;1.42;;;0.80;;
48651;SDS011;34442;52.362;-1.302;2023-05-10T11:43:04;1.00;;;0.90;;
48651;SDS011;34442;52.362;-1.302;2023-05-10T11:45:33;1.48;;;0.80;;
48651;SDS011;34442;52.362;-1.302;2023-05-10T11:47:59;1.45;;;0.80;;
48651;SDS011;34442;52.362;-1.302;2023-05-10T11:50:25;2.05;;;0.90;;
48651;SDS011;34442;52.362;-1.302;2023-05-10T11:52:54;1.85;;;0.80;;
48651;SDS011;34442;52.362;-1.302;2023-05-10T11:55:21;2.70;;;1.00;;
48651;SDS011;34442;52.362;-1.302;2023-05-10T11:57:47;1.13;;;1.02;;
48651;SDS011;34442;52.362;-1.302;2023-05-10T12:00:13;1.00;;;0.80;;
48651;SDS011;34442;52.362;-1.302;2023-05-10T12:02:39;1.67;;;0.80;;
48651;SDS011;34442;52.362;-1.302;2023-05-10T12:05:05;1.58;;;0.82;;
48651;SDS011;34442;52.362;-1.302;2023-05-10T12:07:31;1.05;;;0.70;;
48651;SDS011;34442;52.362;-1.302;2023-05-10T12:10:10;0.95;;;0.77;;
48651;SDS011;34442;52.362;-1.302;2023-05-10T12:12:43;0.75;;;0.60;;
48651;SDS011;34442;52.362;-1.302;2023-05-10T12:15:10;1.60;;;0.93;;
48651;SDS011;34442;52.362;-1.302;2023-05-10T12:17:47;1.50;;;0.80;;
48651;SDS011;34442;52.362;-1.302;2023-05-10T12:20:22;1.58;;;0.80;;
48651;SDS011;34442;52.362;-1.302;2023-05-10T12:22:51;0.65;;;0.65;;
48651;SDS011;34442;52.362;-1.302;2023-05-10T12:25:18;1.55;;;0.90;;
48651;SDS011;34442;52.362;-1.302;2023-05-10T12:27:51;2.63;;;1.27;;
48651;SDS011;34442;52.362;-1.302;2023-05-10T12:30:24;1.25;;;0.95;;
48651;SDS011;34442;52.362;-1.302;2023-05-10T12:32:52;0.63;;;0.63;;
48651;SDS011;34442;52.362;-1.302;2023-05-10T12:35:17;0.88;;;0.82;;
48651;SDS011;34442;52.362;-1.302;2023-05-10T12:37:47;2.10;;;0.95;;
48651;SDS011;34442;52.362;-1.302;2023-05-10T12:40:13;1.27;;;0.68;;
48651;SDS011;34442;52.362;-1.302;2023-05-10T12:42:38;0.75;;;0.60;;
48651;SDS011;34442;52.362;-1.302;2023-05-10T12:45:05;1.50;;;0.70;;
48651;SDS011;34442;52.362;-1.302;2023-05-10T12:47:32;0.60;;;0.60;;
48651;SDS011;34442;52.362;-1.302;2023-05-10T12:49:58;1.55;;;0.73;;
48651;SDS011;34442;52.362;-1.302;2023-05-10T12:52:25;1.08;;;0.70;;
48651;SDS011;34442;52.362;-1.302;2023-05-10T12:54:51;0.73;;;0.65;;
48651;SDS011;34442;52.362;-1.302;2023-05-10T12:57:17;1.70;;;0.80;;
48651;SDS011;34442;52.362;-1.302;2023-05-10T12:59:43;1.05;;;0.80;;
48651;SDS011;34442;52.362;-1.302;2023-05-10T13:02:09;0.73;;;0.73;;
48651;SDS011;34442;52.362;-1.302;2023-05-10T13:04:34;0.85;;;0.70;;
48651;SDS011;34442;52.362;-1.302;2023-05-10T13:07:02;1.70;;;0.75;;
48651;SDS011;34442;52.362;-1.302;2023-05-10T13:09:27;1.33;;;0.60;;
48651;SDS011;34442;52.362;-1.302;2023-05-10T13:11:56;0.75;;;0.75;;
48651;SDS011;34442;52.362;-1.302;2023-05-10T13:14:21;0.75;;;0.50;;
48651;SDS011;34442;52.362;-1.302;2023-05-10T13:16:47;0.50;;;0.50;;
48651;SDS011;34442;52.362;-1.302;2023-05-10T13:19:13;1.48;;;0.80;;
48651;SDS011;34442;52.362;-1.302;2023-05-10T13:21:39;0.85;;;0.73;;
48651;SDS011;34442;52.362;-1.302;2023-05-10T13:24:07;0.57;;;0.47;;
48651;SDS011;34442;52.362;-1.302;2023-05-10T13:26:33;0.63;;;0.63;;
48651;SDS011;34442;52.362;-1.302;2023-05-10T13:28:59;0.50;;;0.50;;
48651;SDS011;34442;52.362;-1.302;2023-05-10T13:31:24;1.23;;;0.73;;
48651;SDS011;34442;52.362;-1.302;2023-05-10T13:33:50;0.85;;;0.65;;
48651;SDS011;34442;52.362;-1.302;2023-05-10T13:36:15;0.70;;;0.52;;
48651;SDS011;34442;52.362;-1.302;2023-05-10T13:38:41;1.90;;;0.65;;
48651;SDS011;34442;52.362;-1.302;2023-05-10T13:41:06;1.00;;;0.60;;
48651;SDS011;34442;52.362;-1.302;2023-05-10T13:43:31;0.75;;;0.50;;
48651;SDS011;34442;52.362;-1.302;2023-05-10T13:45:57;0.52;;;0.50;;
48651;SDS011;34442;52.362;-1.302;2023-05-10T13:48:22;1.00;;;0.60;;
48651;SDS011;34442;52.362;-1.302;2023-05-10T13:50:48;0.93;;;0.55;;
48651;SDS011;34442;52.362;-1.302;2023-05-10T13:53:13;0.52;;;0.40;;
48651;SDS011;34442;52.362;-1.302;2023-05-10T13:55:39;0.32;;;0.32;;
48651;SDS011;34442;52.362;-1.302;2023-05-10T13:58:05;0.60;;;0.50;;
48651;SDS011;34442;52.362;-1.302;2023-05-10T14:00:30;0.40;;;0.40;;
48651;SDS011;34442;52.362;-1.302;2023-05-10T14:02:56;0.63;;;0.50;;
48651;SDS011;34442;52.362;-1.302;2023-05-10T14:05:21;0.30;;;0.30;;
48651;SDS011;34442;52.362;-1.302;2023-05-10T14:07:48;0.38;;;0.38;;
48651;SDS011;34442;52.362;-1.302;2023-05-10T14:10:13;0.30;;;0.30;;
48651;SDS011;34442;52.362;-1.302;2023-05-10T14:12:39;0.50;;;0.50;;
48651;SDS011;34442;52.362;-1.302;2023-05-10T14:15:04;0.43;;;0.43;;
48651;SDS011;34442;52.362;-1.302;2023-05-10T14:17:31;0.40;;;0.40;;
48651;SDS011;34442;52.362;-1.302;2023-05-10T14:19:57;0.47;;;0.40;;
48651;SDS011;34442;52.362;-1.302;2023-05-10T14:22:25;0.57;;;0.57;;
48651;SDS011;34442;52.362;-1.302;2023-05-10T14:24:51;1.33;;;0.57;;
48651;SDS011;34442;52.362;-1.302;2023-05-10T14:27:22;0.70;;;0.60;;
48651;SDS011;34442;52.362;-1.302;2023-05-10T14:29:48;0.52;;;0.52;;
48651;SDS011;34442;52.362;-1.302;2023-05-10T14:32:13;1.58;;;0.75;;
48651;SDS011;34442;52.362;-1.302;2023-05-10T14:34:38;0.50;;;0.50;;
48651;SDS011;34442;52.362;-1.302;2023-05-10T14:37:04;0.60;;;0.60;;
48651;SDS011;34442;52.362;-1.302;2023-05-10T14:39:29;0.52;;;0.50;;
48651;SDS011;34442;52.362;-1.302;2023-05-10T14:41:55;0.40;;;0.40;;
48651;SDS011;34442;52.362;-1.302;2023-05-10T14:44:20;1.38;;;0.70;;
48651;SDS011;34442;52.362;-1.302;2023-05-10T14:46:48;1.05;;;0.60;;
48651;SDS011;34442;52.362;-1.302;2023-05-10T14:49:14;0.82;;;0.60;;
48651;SDS011;34442;52.362;-1.302;2023-05-10T14:51:40;0.75;;;0.60;;
48651;SDS011;34442;52.362;-1.302;2023-05-10T14:54:06;1.98;;;0.70;;
48651;SDS011;34442;52.362;-1.302;2023-05-10T14:56:31;1.05;;;0.70;;
48651;SDS011;34442;52.362;-1.302;2023-05-10T14:58:57;1.60;;;0.80;;
48651;SDS011;34442;52.362;-1.302;2023-05-10T15:01:22;1.45;;;0.77;;
48651;SDS011;34442;52.362;-1.302;2023-05-10T15:03:48;0.75;;;0.60;;
48651;SDS011;34442;52.362;-1.302;2023-05-10T15:06:15;0.85;;;0.70;;
48651;SDS011;34442;52.362;-1.302;2023-05-10T15:08:41;0.55;;;0.55;;
48651;SDS011;34442;52.362;-1.302;2023-05-10T15:11:06;0.68;;;0.60;;